Time;durP1;ratioP1;P1;durP2;ratioP2;P2;SDS_P1;SDS_P2;PMS_P1;PMS_P2;Temp;Humidity;BMP_temperature;BMP_pressure;BME280_temperature;BME280_humidity;BME280_pressure;Samples;Min_cycle;Max_cycle;Signal;HPM_P1;HPM_P2
2024/01/01 00:02:30;;;;;;;;;;;;;;;8.36;100.00;98747.94;12198686;19;19922;-82
2024/01/01 00:06:34;;;;;;;;;;;;;;;8.31;100.00;98758.84;12218618;19;19910;-83
2024/01/01 00:10:38;;;;;;;;;;;;;;;8.19;100.00;98770.00;12215191;19;19915;-83
2024/01/01 00:14:40;;;;;;;;;;;;;;;8.10;100.00;98763.31;12201525;19;19918;-83
2024/01/01 00:18:42;;;;;;;;;;;;;;;8.12;100.00;98761.97;12218920;19;19918;-83
2024/01/01 00:22:44;;;;;;;;;;;;;;;8.25;100.00;98766.22;12220566;19;19996;-83
2024/01/01 00:26:46;;;;;;;;;;;;;;;8.24;100.00;98756.31;12198858;19;19927;-83
2024/01/01 00:30:48;;;;;;;;;;;;;;;8.17;100.00;98755.69;12217237;19;19954;-81
2024/01/01 00:34:51;;;;;;;;;;;;;;;8.07;100.00;98755.59;12210981;19;19915;-83
2024/01/01 00:38:56;;;;;;;;;;;;;;;7.94;100.00;98752.19;12189142;19;19911;-83
2024/01/01 00:42:58;;;;;;;;;;;;;;;8.03;100.00;98759.94;12211234;19;20503;-82
2024/01/01 00:47:00;;;;;;;;;;;;;;;8.27;100.00;98764.03;12193802;19;19915;-84
2024/01/01 00:51:03;;;;;;;;;;;;;;;8.23;100.00;98760.97;12234648;19;19902;-82
2024/01/01 00:55:05;;;;;;;;;;;;;;;8.26;100.00;98758.78;12239591;19;19993;-83
2024/01/01 00:59:10;;;;;;;;;;;;;;;8.31;100.00;98761.59;12213103;19;19923;-79
2024/01/01 01:03:12;;;;;;;;;;;;;;;8.37;100.00;98774.28;12224313;19;19910;-83
2024/01/01 01:07:21;;;;;;;;;;;;;;;8.38;100.00;98767.69;12226181;19;19938;-81
2024/01/01 01:11:23;;;;;;;;;;;;;;;8.34;100.00;98761.91;12196944;19;19974;-80
2024/01/01 01:15:28;;;;;;;;;;;;;;;8.10;100.00;98777.03;12212068;19;20731;-80
2024/01/01 01:19:30;;;;;;;;;;;;;;;8.15;100.00;98782.56;12205397;19;19921;-81
2024/01/01 01:23:33;;;;;;;;;;;;;;;8.22;100.00;98784.00;12184920;19;19922;-81
2024/01/01 01:27:35;;;;;;;;;;;;;;;8.33;100.00;98778.59;12199022;19;19979;-82
2024/01/01 01:31:36;;;;;;;;;;;;;;;8.32;100.00;98785.19;12211927;19;19906;-83
2024/01/01 01:35:38;;;;;;;;;;;;;;;8.23;100.00;98782.09;12174345;19;19918;-80
2024/01/01 01:39:41;;;;;;;;;;;;;;;8.28;100.00;98789.56;12205359;19;20458;-81
2024/01/01 01:43:43;;;;;;;;;;;;;;;8.26;100.00;98789.00;12209677;19;19929;-83
2024/01/01 01:47:45;;;;;;;;;;;;;;;8.11;100.00;98793.22;12178580;19;19919;-84
2024/01/01 01:51:48;;;;;;;;;;;;;;;8.04;100.00;98789.06;12206668;19;19929;-83
2024/01/01 01:55:52;;;;;;;;;;;;;;;7.95;100.00;98783.19;12204010;19;20391;-84
2024/01/01 01:59:54;;;;;;;;;;;;;;;7.87;100.00;98775.41;12181992;19;19918;-85
2024/01/01 02:03:57;;;;;;;;;;;;;;;7.79;100.00;98784.91;12203727;19;19935;-85
2024/01/01 02:08:00;;;;;;;;;;;;;;;7.78;100.00;98780.53;12182051;19;20583;-85
2024/01/01 02:12:03;;;;;;;;;;;;;;;7.73;100.00;98784.06;12202864;19;19914;-83
2024/01/01 02:16:05;;;;;;;;;;;;;;;7.60;100.00;98778.94;12200202;19;19919;-84
2024/01/01 02:20:08;;;;;;;;;;;;;;;7.57;100.00;98792.34;12179888;19;20154;-84
2024/01/01 02:24:20;;;;;;;;;;;;;;;7.64;100.00;98793.78;12200499;19;20621;-84
2024/01/01 02:28:23;;;;;;;;;;;;;;;7.67;100.00;98798.75;12193504;19;19915;-84
2024/01/01 02:32:24;;;;;;;;;;;;;;;7.71;100.00;98799.94;12174638;19;19914;-85
2024/01/01 02:36:27;;;;;;;;;;;;;;;7.56;100.00;98813.44;12215287;19;19914;-87
2024/01/01 02:40:32;;;;;;;;;;;;;;;7.60;100.00;98811.84;12212057;19;19959;-86
2024/01/01 02:44:33;;;;;;;;;;;;;;;7.58;100.00;98819.50;12197963;19;19915;-85
2024/01/01 02:48:35;;;;;;;;;;;;;;;7.41;100.00;98813.25;12216632;19;20376;-86
2024/01/01 02:52:37;;;;;;;;;;;;;;;7.28;100.00;98803.47;12214127;19;19933;-84
2024/01/01 02:56:39;;;;;;;;;;;;;;;7.19;100.00;98805.81;12187305;19;19914;-85
2024/01/01 03:00:42;;;;;;;;;;;;;;;7.09;100.00;98802.94;12217673;19;20339;-86
2024/01/01 03:04:44;;;;;;;;;;;;;;;7.11;100.00;98799.94;12221775;19;19963;-84
2024/01/01 03:08:46;;;;;;;;;;;;;;;7.05;100.00;98794.41;12196117;19;19911;-85
2024/01/01 03:12:48;;;;;;;;;;;;;;;7.10;100.00;98792.81;12226817;19;19987;-86
2024/01/01 03:16:50;;;;;;;;;;;;;;;7.12;100.00;98807.09;12224333;19;19946;-85
2024/01/01 03:20:56;;;;;;;;;;;;;;;7.09;100.00;98800.19;12202253;19;20541;-84
2024/01/01 03:25:01;;;;;;;;;;;;;;;7.13;100.00;98806.00;12220408;19;19941;-83
2024/01/01 03:29:03;;;;;;;;;;;;;;;7.12;100.00;98799.69;12186986;19;19914;-85
2024/01/01 03:33:05;;;;;;;;;;;;;;;7.16;100.00;98783.56;12207988;19;19914;-84
2024/01/01 03:37:07;;;;;;;;;;;;;;;7.15;100.00;98782.75;12211494;19;19907;-86
2024/01/01 03:41:09;;;;;;;;;;;;;;;7.06;100.00;98778.78;12192450;19;19919;-81
2024/01/01 03:45:11;;;;;;;;;;;;;;;7.12;100.00;98777.78;12213909;19;19971;-80
2024/01/01 03:49:14;;;;;;;;;;;;;;;7.18;100.00;98786.91;12212995;19;19906;-84
2024/01/01 03:53:15;;;;;;;;;;;;;;;7.29;100.00;98789.53;12192274;19;20576;-82
2024/01/01 03:57:17;;;;;;;;;;;;;;;7.35;100.00;98795.91;12211312;19;19907;-85
2024/01/01 04:01:21;;;;;;;;;;;;;;;7.42;100.00;98807.50;12203164;19;20247;-83
2024/01/01 04:05:23;;;;;;;;;;;;;;;7.53;100.00;98811.22;12195409;19;19971;-85
2024/01/01 04:09:24;;;;;;;;;;;;;;;7.63;100.00;98811.34;12217617;19;19926;-85
2024/01/01 04:13:26;;;;;;;;;;;;;;;7.64;100.00;98823.94;12214423;19;19906;-82
2024/01/01 04:17:32;;;;;;;;;;;;;;;7.72;100.00;98826.25;12198886;19;19922;-83
2024/01/01 04:21:37;;;;;;;;;;;;;;;7.73;100.00;98818.84;12234592;19;19917;-84
2024/01/01 04:25:40;;;;;;;;;;;;;;;7.75;100.00;98824.91;12253058;19;19919;-81
2024/01/01 04:29:48;;;;;;;;;;;;;;;7.75;100.00;98820.25;12235065;19;19932;-79
2024/01/01 04:33:49;;;;;;;;;;;;;;;7.79;100.00;98815.09;12241599;19;19922;-80
2024/01/01 04:37:51;;;;;;;;;;;;;;;7.80;100.00;98815.94;12207360;19;19919;-82
2024/01/01 04:41:53;;;;;;;;;;;;;;;7.81;100.00;98795.66;12187186;19;19940;-83
2024/01/01 04:45:56;;;;;;;;;;;;;;;7.86;100.00;98788.31;12204316;19;20346;-82
2024/01/01 04:49:58;;;;;;;;;;;;;;;7.87;100.00;98798.19;12185156;19;20461;-82
2024/01/01 04:54:00;;;;;;;;;;;;;;;7.91;100.00;98799.34;12206067;19;19982;-83
2024/01/01 04:58:05;;;;;;;;;;;;;;;7.95;100.00;98816.94;12200166;19;19922;-83
2024/01/01 05:02:08;;;;;;;;;;;;;;;7.91;100.00;98825.91;12183795;19;19911;-82
2024/01/01 05:06:11;;;;;;;;;;;;;;;7.88;100.00;98830.03;12203280;19;19911;-82
2024/01/01 05:10:13;;;;;;;;;;;;;;;7.84;100.00;98839.84;12205104;19;19971;-82
2024/01/01 05:14:14;;;;;;;;;;;;;;;7.69;100.00;98842.41;12185521;19;19915;-84
2024/01/01 05:18:16;;;;;;;;;;;;;;;7.82;100.00;98850.22;12203647;19;19906;-83
2024/01/01 05:22:20;;;;;;;;;;;;;;;7.81;100.00;98856.81;12206133;19;19939;-83
2024/01/01 05:26:21;;;;;;;;;;;;;;;7.85;100.00;98857.13;12196799;19;19939;-78
2024/01/01 05:30:27;;;;;;;;;;;;;;;7.91;100.00;98862.44;12264671;19;19903;-79
2024/01/01 05:34:29;;;;;;;;;;;;;;;7.94;100.00;98863.81;12261635;19;19906;-78
2024/01/01 05:38:30;;;;;;;;;;;;;;;7.86;100.00;98856.88;12210106;19;19907;-84
2024/01/01 05:42:32;;;;;;;;;;;;;;;7.76;100.00;98859.47;12211368;19;19922;-82
2024/01/01 05:46:34;;;;;;;;;;;;;;;7.74;100.00;98873.47;12208765;19;19919;-81
2024/01/01 05:50:36;;;;;;;;;;;;;;;7.75;100.00;98871.53;12188585;19;19911;-81
2024/01/01 05:54:37;;;;;;;;;;;;;;;7.65;100.00;98858.53;12201147;19;19935;-83
2024/01/01 05:58:39;;;;;;;;;;;;;;;7.67;100.00;98864.56;12203032;19;19919;-84
2024/01/01 06:02:41;;;;;;;;;;;;;;;7.69;100.00;98864.34;12180600;19;20009;-84
2024/01/01 06:06:43;;;;;;;;;;;;;;;7.57;100.00;98856.22;12205183;19;20284;-84
2024/01/01 06:10:44;;;;;;;;;;;;;;;7.51;100.00;98863.53;12203356;19;20006;-83
2024/01/01 06:14:50;;;;;;;;;;;;;;;7.46;100.00;98862.63;12182017;19;20524;-82
2024/01/01 06:18:58;;;;;;;;;;;;;;;7.43;100.00;98874.94;12201628;19;19922;-84
2024/01/01 06:23:02;;;;;;;;;;;;;;;7.40;100.00;98871.88;12179444;19;19914;-83
2024/01/01 06:27:05;;;;;;;;;;;;;;;7.46;100.00;98881.81;12196774;19;19911;-84
2024/01/01 06:31:07;;;;;;;;;;;;;;;7.52;100.00;98884.41;12200261;19;20299;-84
2024/01/01 06:35:10;;;;;;;;;;;;;;;7.57;100.00;98889.13;12177799;19;19925;-83
2024/01/01 06:39:11;;;;;;;;;;;;;;;7.63;100.00;98898.25;12196831;19;19910;-83
2024/01/01 06:43:14;;;;;;;;;;;;;;;7.66;100.00;98895.00;12200675;19;19987;-83
2024/01/01 06:47:16;;;;;;;;;;;;;;;7.63;100.00;98906.47;12176742;19;19915;-83
2024/01/01 06:51:18;;;;;;;;;;;;;;;7.63;100.00;98914.69;12196972;19;20275;-84
2024/01/01 06:55:22;;;;;;;;;;;;;;;7.56;100.00;98920.38;12195984;19;19922;-84
2024/01/01 06:59:29;;;;;;;;;;;;;;;7.38;100.00;98923.41;12173478;19;19932;-87
2024/01/01 07:03:31;;;;;;;;;;;;;;;7.13;100.00;98921.06;12198348;19;19910;-86
2024/01/01 07:07:33;;;;;;;;;;;;;;;6.95;100.00;98919.41;12196808;19;19914;-83
2024/01/01 07:11:36;;;;;;;;;;;;;;;6.81;100.00;98936.16;12174567;19;19923;-86
2024/01/01 07:15:38;;;;;;;;;;;;;;;6.67;100.00;98929.31;12197779;19;19990;-88
2024/01/01 07:19:41;;;;;;;;;;;;;;;6.69;100.00;98945.50;12196941;19;19915;-85
2024/01/01 07:23:43;;;;;;;;;;;;;;;6.61;100.00;98947.56;12184717;19;19915;-84
2024/01/01 07:27:46;;;;;;;;;;;;;;;6.54;100.00;98957.84;12207247;19;19911;-85
2024/01/01 07:31:48;;;;;;;;;;;;;;;6.55;100.00;98964.97;12208604;19;19940;-86
2024/01/01 07:35:50;;;;;;;;;;;;;;;6.60;100.00;98965.06;12186127;19;19982;-84
2024/01/01 07:39:53;;;;;;;;;;;;;;;6.66;100.00;98967.88;12206197;19;19918;-85
2024/01/01 07:43:54;;;;;;;;;;;;;;;6.80;100.00;98959.13;12200065;19;19923;-85
2024/01/01 07:48:00;;;;;;;;;;;;;;;6.93;100.00;98965.38;12207501;19;20270;-86
2024/01/01 07:52:02;;;;;;;;;;;;;;;7.04;100.00;98964.47;12207983;19;19995;-84
2024/01/01 07:56:06;;;;;;;;;;;;;;;7.10;100.00;98965.41;12184696;19;19914;-85
2024/01/01 08:00:09;;;;;;;;;;;;;;;7.14;100.00;98967.41;12203968;19;19906;-86
2024/01/01 08:04:12;;;;;;;;;;;;;;;7.19;100.00;98970.22;12205731;19;19943;-85
2024/01/01 08:08:14;;;;;;;;;;;;;;;7.28;100.00;98978.84;12183440;19;19907;-85
2024/01/01 08:12:18;;;;;;;;;;;;;;;7.36;100.00;98974.88;12203447;19;19931;-84
2024/01/01 08:16:20;;;;;;;;;;;;;;;7.39;100.00;98964.25;12201806;19;19914;-83
2024/01/01 08:20:22;;;;;;;;;;;;;;;7.45;100.00;98965.97;12184792;19;19982;-85
2024/01/01 08:24:25;;;;;;;;;;;;;;;7.55;100.00;98976.25;12205714;19;19910;-83
2024/01/01 08:28:26;;;;;;;;;;;;;;;7.60;100.00;98979.09;12201649;19;20904;-85
2024/01/01 08:32:29;;;;;;;;;;;;;;;7.70;100.00;98984.75;12182349;19;19910;-83
2024/01/01 08:36:31;;;;;;;;;;;;;;;7.65;100.00;98990.16;12203918;19;19915;-83
2024/01/01 08:40:33;;;;;;;;;;;;;;;7.57;100.00;98993.31;12206193;19;19910;-83
2024/01/01 08:44:35;;;;;;;;;;;;;;;7.65;100.00;99001.13;12182748;19;19978;-83
2024/01/01 08:48:38;;;;;;;;;;;;;;;7.73;100.00;99014.41;12205996;19;19910;-83
2024/01/01 08:52:42;;;;;;;;;;;;;;;7.80;100.00;99010.66;12207679;19;19914;-84
2024/01/01 08:56:44;;;;;;;;;;;;;;;7.88;100.00;99024.78;12181058;19;19914;-83
2024/01/01 09:00:45;;;;;;;;;;;;;;;7.97;100.00;99038.88;12200377;19;19918;-83
2024/01/01 09:04:48;;;;;;;;;;;;;;;7.89;100.00;99048.38;12204179;19;19906;-83
2024/01/01 09:08:49;;;;;;;;;;;;;;;7.93;100.00;99049.53;12180704;19;19911;-82
2024/01/01 09:12:51;;;;;;;;;;;;;;;7.83;100.00;99045.81;12203806;19;19910;-83
2024/01/01 09:16:53;;;;;;;;;;;;;;;7.76;100.00;99049.56;12201528;19;19919;-84
2024/01/01 09:20:55;;;;;;;;;;;;;;;7.70;100.00;99049.72;12182466;19;19914;-83
2024/01/01 09:25:01;;;;;;;;;;;;;;;7.76;100.00;99052.31;12201539;19;19932;-83
2024/01/01 09:29:06;;;;;;;;;;;;;;;7.94;100.00;99055.84;12181706;19;20255;-84
2024/01/01 09:33:08;;;;;;;;;;;;;;;7.94;100.00;99048.47;12206738;19;21366;-82
2024/01/01 09:37:10;;;;;;;;;;;;;;;8.06;100.00;99048.38;12205317;19;19923;-83
2024/01/01 09:41:14;;;;;;;;;;;;;;;8.17;100.00;99046.59;12180985;19;19911;-83
2024/01/01 09:45:16;;;;;;;;;;;;;;;8.31;100.00;99047.06;12203106;19;19922;-82
2024/01/01 09:49:18;;;;;;;;;;;;;;;8.49;100.00;99055.00;12202205;19;19911;-83
2024/01/01 09:53:20;;;;;;;;;;;;;;;8.59;100.00;99057.06;12178061;19;19938;-82
2024/01/01 09:57:24;;;;;;;;;;;;;;;8.71;100.00;99068.72;12200791;19;19911;-82
2024/01/01 10:01:28;;;;;;;;;;;;;;;8.83;100.00;99055.72;12197012;19;19911;-83
2024/01/01 10:05:30;;;;;;;;;;;;;;;8.81;100.00;99043.31;12182125;19;20336;-84
2024/01/01 10:09:32;;;;;;;;;;;;;;;8.91;100.00;99040.69;12197603;19;19918;-83
2024/01/01 10:13:34;;;;;;;;;;;;;;;9.03;100.00;99046.84;12203103;19;19922;-83
2024/01/01 10:17:39;;;;;;;;;;;;;;;9.01;100.00;99042.72;12175892;19;20207;-83
2024/01/01 10:21:44;;;;;;;;;;;;;;;8.98;100.00;99046.78;12201668;19;20523;-83
2024/01/01 10:25:46;;;;;;;;;;;;;;;8.94;100.00;99056.66;12199021;19;19911;-82
2024/01/01 10:29:48;;;;;;;;;;;;;;;8.93;100.00;99048.69;12176051;19;20591;-84
2024/01/01 10:33:50;;;;;;;;;;;;;;;8.93;100.00;99052.25;12198986;19;19911;-83
2024/01/01 10:37:53;;;;;;;;;;;;;;;8.98;99.10;99052.28;12198377;19;19919;-84
2024/01/01 10:41:55;;;;;;;;;;;;;;;9.02;97.75;99047.97;12178113;19;20330;-85
2024/01/01 10:46:03;;;;;;;;;;;;;;;9.09;96.99;99053.25;12199832;19;19915;-84
2024/01/01 10:50:27;;;;;;;;;;;;;;;9.08;96.25;99057.09;12175808;19;20360;-82
2024/01/01 10:54:42;;;;;;;;;;;;;;;9.10;96.45;99057.63;12197026;19;19924;-81
2024/01/01 10:59:04;;;;;;;;;;;;;;;9.07;95.48;99064.50;12197972;19;19927;-84
2024/01/01 11:03:11;;;;;;;;;;;;;;;9.18;95.21;99059.09;12189108;19;20975;-84
2024/01/01 11:07:15;;;;;;;;;;;;;;;9.36;93.65;99064.22;12206710;19;19910;-83
2024/01/01 11:11:20;;;;;;;;;;;;;;;9.46;93.92;99067.09;12190792;19;20251;-84
2024/01/01 11:15:42;;;;;;;;;;;;;;;9.47;93.20;99078.91;12210741;19;19914;-83
2024/01/01 11:19:48;;;;;;;;;;;;;;;9.52;92.81;99067.97;12219568;19;19926;-82
2024/01/01 11:23:50;;;;;;;;;;;;;;;9.64;92.43;99081.53;12212378;19;19921;-84
2024/01/01 11:27:54;;;;;;;;;;;;;;;9.66;92.56;99088.44;12212152;19;19907;-83
2024/01/01 11:31:59;;;;;;;;;;;;;;;9.86;92.52;99089.72;12211086;19;19932;-84
2024/01/01 11:36:06;;;;;;;;;;;;;;;9.94;91.88;99095.56;12185977;19;19915;-82
2024/01/01 11:40:10;;;;;;;;;;;;;;;10.01;90.19;99089.84;12207519;19;19931;-82
2024/01/01 11:44:13;;;;;;;;;;;;;;;9.67;91.25;99086.53;12192403;19;21974;-83
2024/01/01 11:48:17;;;;;;;;;;;;;;;9.80;89.55;99086.09;12209556;19;19914;-83
2024/01/01 11:52:19;;;;;;;;;;;;;;;9.81;89.69;99085.00;12211044;19;20322;-81
2024/01/01 11:56:21;;;;;;;;;;;;;;;9.78;89.90;99093.78;12184604;19;20323;-83
2024/01/01 12:00:24;;;;;;;;;;;;;;;9.56;91.23;99083.69;12207171;19;19940;-83
2024/01/01 12:04:26;;;;;;;;;;;;;;;9.58;92.40;99102.69;12209267;19;20374;-83
2024/01/01 12:08:29;;;;;;;;;;;;;;;9.65;90.94;99089.53;12184643;19;19910;-85
2024/01/01 12:12:32;;;;;;;;;;;;;;;9.59;91.72;99091.41;12209656;19;19921;-84
2024/01/01 12:16:35;;;;;;;;;;;;;;;9.50;93.21;99095.72;12208684;19;19918;-81
2024/01/01 12:20:37;;;;;;;;;;;;;;;9.62;92.60;99090.06;12190661;19;19923;-84
2024/01/01 12:24:38;;;;;;;;;;;;;;;9.62;93.08;99084.56;12214129;19;19979;-83
2024/01/01 12:28:41;;;;;;;;;;;;;;;9.65;96.31;99084.03;12212225;19;19922;-82
2024/01/01 12:32:43;;;;;;;;;;;;;;;9.64;99.92;99076.03;12191380;19;19906;-83
2024/01/01 12:36:46;;;;;;;;;;;;;;;9.61;100.00;99071.91;12217683;19;19915;-82
2024/01/01 12:40:49;;;;;;;;;;;;;;;9.74;100.00;99084.38;12262011;19;19923;-83
2024/01/01 12:44:52;;;;;;;;;;;;;;;9.65;100.00;99091.47;12249843;19;19911;-84
2024/01/01 12:48:54;;;;;;;;;;;;;;;9.56;100.00;99088.34;12262163;19;19906;-83
2024/01/01 12:52:57;;;;;;;;;;;;;;;9.47;99.05;99088.00;12219218;19;20308;-86
2024/01/01 12:57:00;;;;;;;;;;;;;;;9.41;98.40;99088.22;12183285;19;19915;-84
2024/01/01 13:01:05;;;;;;;;;;;;;;;9.30;97.69;99079.03;12203115;19;20283;-84
2024/01/01 13:05:08;;;;;;;;;;;;;;;9.20;98.48;99081.69;12183705;19;20374;-83
2024/01/01 13:09:11;;;;;;;;;;;;;;;9.17;98.25;99084.94;12203583;19;19931;-83
2024/01/01 13:13:13;;;;;;;;;;;;;;;9.13;99.06;99077.22;12204266;19;19956;-85
2024/01/01 13:17:15;;;;;;;;;;;;;;;9.04;99.71;99088.91;12183545;19;19919;-84
2024/01/01 13:21:17;;;;;;;;;;;;;;;9.04;99.86;99078.78;12208639;19;19910;-83
2024/01/01 13:25:21;;;;;;;;;;;;;;;9.02;100.00;99089.19;12205351;19;19934;-84
2024/01/01 13:29:23;;;;;;;;;;;;;;;9.02;100.00;99080.94;12184709;19;19928;-84
2024/01/01 13:33:25;;;;;;;;;;;;;;;9.00;100.00;99091.34;12206139;19;19930;-82
2024/01/01 13:37:27;;;;;;;;;;;;;;;9.00;99.87;99085.84;12206988;19;20255;-82
2024/01/01 13:41:29;;;;;;;;;;;;;;;8.93;99.95;99087.97;12183360;19;19915;-82
2024/01/01 13:45:31;;;;;;;;;;;;;;;8.92;100.00;99086.28;12233607;19;19955;-82
2024/01/01 13:49:35;;;;;;;;;;;;;;;8.95;99.69;99091.28;12236517;19;19910;-82
2024/01/01 13:53:38;;;;;;;;;;;;;;;9.06;99.97;99098.56;12216665;19;19926;-80
2024/01/01 13:57:39;;;;;;;;;;;;;;;9.06;98.69;99092.22;12234194;19;20363;-80
2024/01/01 14:01:41;;;;;;;;;;;;;;;9.16;97.96;99099.75;12199406;19;19918;-84
2024/01/01 14:05:44;;;;;;;;;;;;;;;9.15;97.32;99101.69;12177472;19;20022;-81
2024/01/01 14:09:45;;;;;;;;;;;;;;;9.15;97.29;99109.94;12198903;19;19942;-82
2024/01/01 14:13:47;;;;;;;;;;;;;;;9.17;97.45;99127.00;12205501;19;19928;-82
2024/01/01 14:17:52;;;;;;;;;;;;;;;9.24;96.61;99121.31;12179416;19;19911;-83
2024/01/01 14:21:54;;;;;;;;;;;;;;;9.17;97.25;99134.44;12200011;19;19928;-82
2024/01/01 14:26:02;;;;;;;;;;;;;;;9.14;97.30;99144.00;12198877;19;19918;-81
2024/01/01 14:30:05;;;;;;;;;;;;;;;9.13;97.56;99143.19;12179694;19;19907;-81
2024/01/01 14:34:06;;;;;;;;;;;;;;;9.12;97.07;99135.19;12207834;19;19929;-81
2024/01/01 14:38:08;;;;;;;;;;;;;;;9.17;96.85;99129.75;12186606;19;19910;-80
2024/01/01 14:42:11;;;;;;;;;;;;;;;9.11;96.93;99131.59;12211684;19;20266;-82
2024/01/01 14:46:17;;;;;;;;;;;;;;;9.06;97.67;99133.47;12210710;19;19918;-80
2024/01/01 14:50:18;;;;;;;;;;;;;;;9.01;98.22;99128.75;12189249;19;19919;-81
2024/01/01 14:54:21;;;;;;;;;;;;;;;8.87;98.15;99128.28;12207816;19;19911;-80
2024/01/01 14:58:23;;;;;;;;;;;;;;;8.82;98.66;99143.88;12208307;19;20265;-81
2024/01/01 15:02:25;;;;;;;;;;;;;;;8.78;99.12;99149.06;12189016;19;19933;-82
2024/01/01 15:06:28;;;;;;;;;;;;;;;8.80;99.25;99151.53;12212202;19;20378;-80
2024/01/01 15:10:30;;;;;;;;;;;;;;;8.77;98.77;99161.09;12208807;19;19911;-81
2024/01/01 15:14:34;;;;;;;;;;;;;;;8.76;97.87;99164.94;12190070;19;19910;-80
2024/01/01 15:18:35;;;;;;;;;;;;;;;8.77;97.57;99166.59;12208739;19;19984;-82
2024/01/01 15:22:37;;;;;;;;;;;;;;;8.75;96.93;99184.44;12210455;19;20478;-82
2024/01/01 15:26:40;;;;;;;;;;;;;;;8.73;96.23;99183.88;12191647;19;19907;-81
2024/01/01 15:30:43;;;;;;;;;;;;;;;8.71;96.64;99189.59;12211332;19;19922;-82
2024/01/01 15:34:45;;;;;;;;;;;;;;;8.66;96.68;99186.78;12212920;19;19995;-82
2024/01/01 15:38:47;;;;;;;;;;;;;;;8.69;97.03;99185.47;12194584;19;19921;-82
2024/01/01 15:42:53;;;;;;;;;;;;;;;8.64;97.21;99191.69;12212363;19;20334;-81
2024/01/01 15:46:54;;;;;;;;;;;;;;;8.52;97.72;99196.47;12215202;19;19924;-81
2024/01/01 15:51:01;;;;;;;;;;;;;;;8.54;98.22;99208.03;12194846;19;19918;-81
2024/01/01 15:55:12;;;;;;;;;;;;;;;8.60;97.73;99212.53;12217084;19;19922;-82
2024/01/01 15:59:15;;;;;;;;;;;;;;;8.66;97.17;99214.25;12192171;19;19919;-81
2024/01/01 16:03:18;;;;;;;;;;;;;;;8.66;96.86;99204.09;12215719;19;19930;-82
2024/01/01 16:07:19;;;;;;;;;;;;;;;8.69;96.46;99212.94;12214362;19;20592;-81
2024/01/01 16:11:21;;;;;;;;;;;;;;;8.74;95.82;99221.22;12190507;19;19939;-82
2024/01/01 16:15:23;;;;;;;;;;;;;;;8.74;94.83;99215.72;12247529;19;20008;-81
2024/01/01 16:19:25;;;;;;;;;;;;;;;8.80;94.85;99220.22;12219868;19;19919;-80
2024/01/01 16:23:36;;;;;;;;;;;;;;;8.79;94.46;99219.38;12186371;19;19914;-81
2024/01/01 16:27:39;;;;;;;;;;;;;;;8.87;94.24;99226.38;12205811;19;19948;-81
2024/01/01 16:31:42;;;;;;;;;;;;;;;8.83;93.29;99227.94;12207730;19;19994;-80
2024/01/01 16:35:44;;;;;;;;;;;;;;;8.85;93.13;99231.28;12186602;19;19910;-79
2024/01/01 16:39:49;;;;;;;;;;;;;;;8.89;92.59;99229.69;12203728;19;19927;-81
2024/01/01 16:43:51;;;;;;;;;;;;;;;8.86;91.80;99241.19;12210218;19;20034;-80
2024/01/01 16:47:53;;;;;;;;;;;;;;;8.87;91.34;99238.19;12182107;19;20303;-80
2024/01/01 16:51:56;;;;;;;;;;;;;;;8.83;90.60;99248.03;12207386;19;19923;-81
2024/01/01 16:55:59;;;;;;;;;;;;;;;8.90;90.39;99247.84;12205466;19;19914;-81
2024/01/01 17:00:04;;;;;;;;;;;;;;;8.90;90.09;99245.09;12179408;19;19951;-79
2024/01/01 17:04:06;;;;;;;;;;;;;;;8.80;89.28;99243.00;12235054;19;19914;-80
2024/01/01 17:08:07;;;;;;;;;;;;;;;8.89;89.93;99235.19;12184325;19;19911;-82
2024/01/01 17:12:10;;;;;;;;;;;;;;;8.90;89.66;99237.69;12213361;19;19914;-81
2024/01/01 17:16:14;;;;;;;;;;;;;;;8.82;89.27;99249.09;12223413;19;19927;-80
2024/01/01 17:20:17;;;;;;;;;;;;;;;8.80;88.91;99245.75;12201255;19;19943;-80
2024/01/01 17:24:18;;;;;;;;;;;;;;;8.90;89.16;99254.16;12205453;19;19915;-81
2024/01/01 17:28:21;;;;;;;;;;;;;;;8.92;88.88;99251.16;12202803;19;20337;-81
2024/01/01 17:32:23;;;;;;;;;;;;;;;8.85;88.19;99250.50;12182094;19;19924;-80
2024/01/01 17:36:29;;;;;;;;;;;;;;;8.81;88.55;99260.34;12202617;19;20047;-80
2024/01/01 17:40:32;;;;;;;;;;;;;;;8.79;88.79;99246.84;12204158;19;19943;-79
2024/01/01 17:44:33;;;;;;;;;;;;;;;8.78;88.67;99263.59;12182226;19;20335;-80
2024/01/01 17:48:35;;;;;;;;;;;;;;;8.73;89.06;99258.03;12200910;19;19914;-80
2024/01/01 17:52:37;;;;;;;;;;;;;;;8.65;88.85;99257.34;12203558;19;19947;-82
2024/01/01 17:56:46;;;;;;;;;;;;;;;8.67;88.84;99262.59;12178328;19;19910;-81
2024/01/01 18:00:48;;;;;;;;;;;;;;;8.60;89.12;99264.69;12199412;19;19919;-81
2024/01/01 18:04:50;;;;;;;;;;;;;;;8.56;89.65;99263.53;12198052;19;19924;-79
2024/01/01 18:08:52;;;;;;;;;;;;;;;8.53;89.99;99269.50;12177503;19;19910;-80
2024/01/01 18:12:54;;;;;;;;;;;;;;;8.47;89.90;99268.59;12199777;19;19915;-80
2024/01/01 18:16:57;;;;;;;;;;;;;;;8.43;90.15;99267.44;12200651;19;20372;-80
2024/01/01 18:21:00;;;;;;;;;;;;;;;8.40;90.21;99267.94;12173494;19;20494;-80
2024/01/01 18:25:05;;;;;;;;;;;;;;;8.40;90.31;99270.69;12200844;19;20370;-80
2024/01/01 18:29:09;;;;;;;;;;;;;;;8.33;90.47;99262.59;12175278;19;19932;-80
2024/01/01 18:33:12;;;;;;;;;;;;;;;8.25;90.97;99260.25;12200319;19;19926;-80
2024/01/01 18:37:14;;;;;;;;;;;;;;;8.25;91.23;99259.41;12194451;19;19911;-79
2024/01/01 18:41:16;;;;;;;;;;;;;;;8.22;91.55;99258.81;12176551;19;19915;-80
2024/01/01 18:45:18;;;;;;;;;;;;;;;8.19;92.04;99253.00;12201080;19;19915;-79
2024/01/01 18:49:21;;;;;;;;;;;;;;;8.14;92.27;99256.47;12208848;19;19923;-80
2024/01/01 18:53:26;;;;;;;;;;;;;;;8.09;92.60;99244.56;12181342;19;19915;-80
2024/01/01 18:57:28;;;;;;;;;;;;;;;8.09;92.81;99250.91;12200106;19;19966;-80
2024/01/01 19:01:35;;;;;;;;;;;;;;;8.09;92.93;99241.84;12194485;19;19911;-82
2024/01/01 19:05:37;;;;;;;;;;;;;;;8.09;93.31;99248.19;12175240;19;19918;-82
2024/01/01 19:09:40;;;;;;;;;;;;;;;8.07;94.06;99253.06;12202155;19;19914;-81
2024/01/01 19:13:42;;;;;;;;;;;;;;;8.10;94.38;99254.50;12197983;19;19907;-79
2024/01/01 19:17:43;;;;;;;;;;;;;;;8.05;97.03;99265.38;12187224;19;19911;-81
2024/01/01 19:21:45;;;;;;;;;;;;;;;8.08;99.96;99268.44;12215898;19;19975;-82
2024/01/01 19:25:48;;;;;;;;;;;;;;;8.03;100.00;99248.31;12218322;19;19945;-83
2024/01/01 19:29:49;;;;;;;;;;;;;;;7.94;100.00;99247.88;12193846;19;19942;-83
2024/01/01 19:33:51;;;;;;;;;;;;;;;7.89;100.00;99248.63;12218336;19;19915;-82
2024/01/01 19:38:01;;;;;;;;;;;;;;;7.83;100.00;99248.78;12251892;19;20369;-82
2024/01/01 19:42:03;;;;;;;;;;;;;;;7.81;100.00;99243.53;12197256;19;19910;-82
2024/01/01 19:46:07;;;;;;;;;;;;;;;7.81;100.00;99239.97;12214249;19;20456;-82
2024/01/01 19:50:10;;;;;;;;;;;;;;;7.85;100.00;99235.63;12191796;19;19907;-81
2024/01/01 19:54:12;;;;;;;;;;;;;;;7.90;100.00;99231.09;12213097;19;19935;-82
2024/01/01 19:58:15;;;;;;;;;;;;;;;7.93;100.00;99222.34;12211146;19;19914;-80
2024/01/01 20:02:17;;;;;;;;;;;;;;;8.00;100.00;99224.94;12190689;19;19922;-81
2024/01/01 20:06:19;;;;;;;;;;;;;;;8.03;100.00;99218.13;12213353;19;20330;-79
2024/01/01 20:10:24;;;;;;;;;;;;;;;8.09;100.00;99228.09;12234382;19;19915;-81
2024/01/01 20:14:26;;;;;;;;;;;;;;;8.11;100.00;99228.69;12239300;19;19917;-82
2024/01/01 20:18:29;;;;;;;;;;;;;;;8.18;100.00;99223.91;12254251;19;19911;-82
2024/01/01 20:22:31;;;;;;;;;;;;;;;8.19;100.00;99226.38;12226858;19;19915;-82
2024/01/01 20:26:34;;;;;;;;;;;;;;;8.22;100.00;99212.16;12186593;19;19915;-82
2024/01/01 20:30:35;;;;;;;;;;;;;;;8.17;100.00;99217.56;12207312;19;19915;-82
2024/01/01 20:34:39;;;;;;;;;;;;;;;8.16;100.00;99212.34;12231447;19;19907;-82
2024/01/01 20:38:47;;;;;;;;;;;;;;;8.19;100.00;99204.44;12203869;19;20035;-83
2024/01/01 20:42:50;;;;;;;;;;;;;;;8.18;100.00;99196.47;12224131;19;19925;-82
2024/01/01 20:46:52;;;;;;;;;;;;;;;8.13;100.00;99182.66;12238033;19;19945;-82
2024/01/01 20:50:54;;;;;;;;;;;;;;;8.08;97.85;99179.81;12211460;19;19926;-83
2024/01/01 20:54:56;;;;;;;;;;;;;;;8.11;96.63;99174.66;12223309;19;19938;-81